Time;durP1;ratioP1;P1;durP2;ratioP2;P2;SDS_P1;SDS_P2;PMS_P1;PMS_P2;Temp;Humidity;BMP_temperature;BMP_pressure;BME280_temperature;BME280_humidity;BME280_pressure;Samples;Min_cycle;Max_cycle;Signal;HPM_P1;HPM_P2
2022/09/05 00:01:40;;;;;;;7.15;5.13;;;;;;;;;;5051040;28;20132;-80
2022/09/05 00:04:14;;;;;;;5.40;4.30;;;;;;;;;;5050643;28;20037;-79
2022/09/05 00:06:44;;;;;;;7.00;4.70;;;;;;;;;;5034604;28;20044;-79
2022/09/05 00:09:46;;;;;;;6.40;4.43;;;;;;;;;;5050546;28;20086;-79
2022/09/05 00:12:13;;;;;;;9.20;4.32;;;;;;;;;;5050427;28;20486;-79
2022/09/05 00:14:39;;;;;;;9.88;4.28;;;;;;;;;;5051292;28;20040;-79
2022/09/05 00:17:17;;;;;;;5.53;4.65;;;;;;;;;;5050811;28;20080;-79
2022/09/05 00:19:50;;;;;;;7.15;4.57;;;;;;;;;;5034653;28;20041;-79
2022/09/05 00:22:22;;;;;;;9.02;4.50;;;;;;;;;;5051901;28;20470;-79
2022/09/05 00:24:48;;;;;;;8.07;4.80;;;;;;;;;;5034575;28;20037;-79
2022/09/05 00:27:21;;;;;;;6.57;4.40;;;;;;;;;;5050206;28;20052;-80
2022/09/05 00:29:50;;;;;;;7.13;4.63;;;;;;;;;;5050727;28;20047;-79
2022/09/05 00:32:32;;;;;;;8.07;4.68;;;;;;;;;;5050390;28;20029;-79
2022/09/05 00:35:07;;;;;;;8.98;4.78;;;;;;;;;;5051179;28;20488;-79
2022/09/05 00:37:36;;;;;;;7.55;4.82;;;;;;;;;;5051460;28;20098;-79
2022/09/05 00:40:11;;;;;;;6.95;4.90;;;;;;;;;;5050670;28;20143;-79
2022/09/05 00:42:37;;;;;;;6.72;4.70;;;;;;;;;;5051256;28;20505;-79
2022/09/05 00:45:04;;;;;;;7.78;5.20;;;;;;;;;;5050663;28;20114;-79
2022/09/05 00:47:43;;;;;;;6.40;5.20;;;;;;;;;;5050263;28;20142;-79
2022/09/05 00:50:14;;;;;;;7.13;5.40;;;;;;;;;;5050561;28;20409;-79
2022/09/05 00:52:57;;;;;;;6.28;4.97;;;;;;;;;;5050616;28;20063;-79
2022/09/05 00:55:27;;;;;;;7.03;5.40;;;;;;;;;;5050496;28;20461;-79
2022/09/05 00:57:59;;;;;;;7.38;5.07;;;;;;;;;;5050418;28;20041;-79
2022/09/05 01:00:34;;;;;;;8.20;5.82;;;;;;;;;;5050210;28;20083;-79
2022/09/05 01:03:20;;;;;;;10.53;5.43;;;;;;;;;;5050534;28;20036;-79
2022/09/05 01:05:52;;;;;;;6.32;5.35;;;;;;;;;;5050532;28;20283;-79
2022/09/05 01:08:18;;;;;;;6.85;5.25;;;;;;;;;;5033448;28;20077;-79
2022/09/05 01:10:44;;;;;;;7.05;5.25;;;;;;;;;;5050563;28;20066;-79
2022/09/05 01:13:16;;;;;;;9.60;5.75;;;;;;;;;;5050145;28;20041;-79
2022/09/05 01:15:50;;;;;;;7.20;5.57;;;;;;;;;;5037757;28;20393;-79
2022/09/05 01:18:39;;;;;;;6.25;4.95;;;;;;;;;;5053823;28;20075;-79
2022/09/05 01:21:24;;;;;;;7.15;5.35;;;;;;;;;;5044772;28;20049;-79
2022/09/05 01:24:12;;;;;;;7.90;5.75;;;;;;;;;;5054424;28;20037;-79
2022/09/05 01:26:59;;;;;;;13.05;5.50;;;;;;;;;;5054168;28;20044;-79
2022/09/05 01:29:32;;;;;;;9.55;5.95;;;;;;;;;;5037105;28;20366;-79
2022/09/05 01:32:16;;;;;;;8.18;5.85;;;;;;;;;;5053980;28;20029;-79
2022/09/05 01:35:21;;;;;;;11.15;5.60;;;;;;;;;;5053897;28;20103;-79
2022/09/05 01:37:50;;;;;;;6.85;5.68;;;;;;;;;;5054031;28;20485;-79
2022/09/05 01:40:35;;;;;;;7.95;5.70;;;;;;;;;;5036746;28;20048;-79
2022/09/05 01:43:01;;;;;;;7.53;5.88;;;;;;;;;;5053829;28;20128;-79
2022/09/05 01:45:27;;;;;;;9.43;5.93;;;;;;;;;;5053492;28;20102;-79
2022/09/05 01:48:02;;;;;;;7.20;6.18;;;;;;;;;;5037012;28;20056;-79
2022/09/05 01:50:40;;;;;;;7.32;5.55;;;;;;;;;;5036858;28;20045;-79
2022/09/05 01:53:31;;;;;;;7.82;6.45;;;;;;;;;;5053645;28;20060;-78
2022/09/05 01:56:09;;;;;;;8.15;6.22;;;;;;;;;;5040728;28;20138;-79
2022/09/05 01:58:54;;;;;;;8.50;5.97;;;;;;;;;;5036542;28;20889;-79
2022/09/05 02:01:23;;;;;;;7.05;5.97;;;;;;;;;;5035746;28;20036;-79
2022/09/05 02:04:08;;;;;;;10.38;5.93;;;;;;;;;;5045360;28;20041;-79
2022/09/05 02:06:52;;;;;;;8.18;5.90;;;;;;;;;;5041695;28;20076;-79
2022/09/05 02:09:27;;;;;;;7.10;6.35;;;;;;;;;;5039950;28;20091;-79
2022/09/05 02:11:58;;;;;;;7.40;6.38;;;;;;;;;;5044555;28;20065;-79
2022/09/05 02:14:42;;;;;;;9.23;6.57;;;;;;;;;;5040021;28;20041;-79
2022/09/05 02:17:08;;;;;;;9.88;6.50;;;;;;;;;;5045724;28;20426;-79
2022/09/05 02:19:42;;;;;;;9.25;6.30;;;;;;;;;;5039361;28;20088;-79
2022/09/05 02:22:14;;;;;;;9.13;6.60;;;;;;;;;;5048215;28;20032;-79
2022/09/05 02:24:53;;;;;;;9.60;6.78;;;;;;;;;;5035127;28;20041;-79
2022/09/05 02:27:28;;;;;;;11.57;6.88;;;;;;;;;;5036346;28;20041;-79
2022/09/05 02:30:09;;;;;;;12.80;6.75;;;;;;;;;;5052662;28;20045;-79
2022/09/05 02:32:35;;;;;;;9.07;7.13;;;;;;;;;;5052818;28;20493;-79
2022/09/05 02:35:04;;;;;;;7.75;6.68;;;;;;;;;;5052761;28;20087;-79
2022/09/05 02:37:36;;;;;;;10.30;6.78;;;;;;;;;;5036029;28;20052;-79
2022/09/05 02:40:09;;;;;;;7.68;6.88;;;;;;;;;;5052446;28;20040;-79
2022/09/05 02:42:40;;;;;;;10.27;7.15;;;;;;;;;;5052982;28;20056;-79
2022/09/05 02:45:12;;;;;;;8.65;7.38;;;;;;;;;;5052364;28;20099;-79
2022/09/05 02:47:45;;;;;;;9.07;7.82;;;;;;;;;;5034577;28;20090;-79
2022/09/05 02:50:31;;;;;;;10.85;7.88;;;;;;;;;;5052410;28;20036;-79
2022/09/05 02:52:58;;;;;;;10.65;7.93;;;;;;;;;;5039538;28;20132;-79
2022/09/05 02:55:40;;;;;;;8.45;7.32;;;;;;;;;;5051414;28;20033;-80
2022/09/05 02:58:30;;;;;;;9.38;7.65;;;;;;;;;;5052425;28;20044;-79
2022/09/05 03:01:09;;;;;;;9.88;7.53;;;;;;;;;;5052323;28;20060;-79
2022/09/05 03:03:53;;;;;;;11.82;7.55;;;;;;;;;;5051756;28;20120;-79
2022/09/05 03:06:29;;;;;;;11.25;7.80;;;;;;;;;;5052278;28;20033;-79
2022/09/05 03:08:55;;;;;;;;;;;;;;;;;;5052641;28;20127;-79
2022/09/05 03:11:41;;;;;;;9.73;7.47;;;;;;;;;;5052321;28;20377;-79
2022/09/05 03:14:23;;;;;;;9.65;7.38;;;;;;;;;;5052490;28;20124;-79
2022/09/05 03:17:07;;;;;;;9.40;8.05;;;;;;;;;;5051640;28;20126;-79
2022/09/05 03:19:33;;;;;;;8.73;7.60;;;;;;;;;;5051610;28;20572;-79
2022/09/05 03:22:27;;;;;;;12.40;8.38;;;;;;;;;;5052041;28;20037;-79
2022/09/05 03:24:53;;;;;;;8.02;7.22;;;;;;;;;;5051844;28;20083;-79
2022/09/05 03:27:32;;;;;;;9.93;8.07;;;;;;;;;;5051688;28;20155;-79
2022/09/05 03:30:10;;;;;;;8.85;7.30;;;;;;;;;;5034771;28;20079;-79
2022/09/05 03:32:47;;;;;;;10.05;7.15;;;;;;;;;;5051306;28;20068;-79
2022/09/05 03:35:32;;;;;;;9.15;7.20;;;;;;;;;;5051685;28;20056;-79
2022/09/05 03:38:07;;;;;;;10.30;6.85;;;;;;;;;;5051418;28;20052;-79
2022/09/05 03:40:48;;;;;;;9.15;7.60;;;;;;;;;;5034507;28;20414;-79
2022/09/05 03:43:17;;;;;;;8.70;7.75;;;;;;;;;;5034765;28;20041;-79
2022/09/05 03:45:56;;;;;;;9.13;7.63;;;;;;;;;;5050785;28;20041;-79
2022/09/05 03:48:35;;;;;;;10.00;8.20;;;;;;;;;;5051612;28;20131;-79
2022/09/05 03:51:24;;;;;;;11.30;8.10;;;;;;;;;;5051418;28;20047;-79
2022/09/05 03:53:59;;;;;;;9.95;8.23;;;;;;;;;;5050746;28;20052;-79
2022/09/05 03:56:36;;;;;;;15.00;7.97;;;;;;;;;;5051426;28;20106;-79
2022/09/05 03:59:05;;;;;;;9.80;8.00;;;;;;;;;;5034877;28;20110;-79
2022/09/05 04:01:35;;;;;;;9.27;7.95;;;;;;;;;;5049536;28;20053;-79
2022/09/05 04:04:03;;;;;;;10.75;7.93;;;;;;;;;;5033160;28;20048;-79
2022/09/05 04:06:32;;;;;;;9.07;7.80;;;;;;;;;;5038557;28;20037;-79
2022/09/05 04:09:18;;;;;;;10.27;8.30;;;;;;;;;;5044175;28;20116;-79
2022/09/05 04:11:46;;;;;;;10.48;7.68;;;;;;;;;;5038819;28;20046;-79
2022/09/05 04:14:20;;;;;;;9.25;7.63;;;;;;;;;;5042916;28;20037;-79
2022/09/05 04:16:49;;;;;;;8.65;7.57;;;;;;;;;;5037836;28;20045;-79
2022/09/05 04:19:20;;;;;;;10.30;7.85;;;;;;;;;;5043037;28;20153;-79
2022/09/05 04:22:05;;;;;;;10.07;8.02;;;;;;;;;;5037550;28;20042;-79
2022/09/05 04:24:36;;;;;;;9.70;7.70;;;;;;;;;;5038295;28;20040;-79
2022/09/05 04:27:35;;;;;;;10.90;7.60;;;;;;;;;;5040070;28;20040;-79
2022/09/05 04:30:03;;;;;;;12.63;8.32;;;;;;;;;;5023056;28;20080;-79
2022/09/05 04:33:08;;;;;;;8.88;7.93;;;;;;;;;;5041494;28;20068;-79
2022/09/05 04:35:53;;;;;;;10.88;8.27;;;;;;;;;;5000168;28;20049;-79
2022/09/05 04:38:35;;;;;;;11.43;8.65;;;;;;;;;;5006977;28;20041;-79
2022/09/05 04:41:08;;;;;;;10.82;8.50;;;;;;;;;;5025525;28;20052;-79
2022/09/05 04:43:34;;;;;;;13.00;8.10;;;;;;;;;;5038648;28;20049;-79
2022/09/05 04:46:06;;;;;;;12.02;8.13;;;;;;;;;;5041191;28;20493;-79
2022/09/05 04:48:35;;;;;;;13.90;8.73;;;;;;;;;;5051657;28;20048;-79
2022/09/05 04:51:27;;;;;;;10.10;8.70;;;;;;;;;;5047294;28;20041;-79
2022/09/05 04:54:08;;;;;;;9.65;8.65;;;;;;;;;;5043022;28;20494;-79
2022/09/05 04:56:38;;;;;;;12.32;8.90;;;;;;;;;;5054744;28;20073;-79
2022/09/05 04:59:09;;;;;;;10.07;8.85;;;;;;;;;;5055012;28;20037;-79
2022/09/05 05:01:41;;;;;;;9.55;8.55;;;;;;;;;;5038082;28;20386;-79
2022/09/05 05:04:09;;;;;;;10.18;8.93;;;;;;;;;;5054601;28;20045;-79
2022/09/05 05:06:38;;;;;;;10.43;8.98;;;;;;;;;;5054657;28;20393;-79
2022/09/05 05:09:07;;;;;;;10.10;9.10;;;;;;;;;;5054457;28;20136;-79
2022/09/05 05:11:49;;;;;;;11.88;9.43;;;;;;;;;;5038176;28;20037;-79
2022/09/05 05:14:21;;;;;;;10.90;9.02;;;;;;;;;;5055100;28;20539;-79
2022/09/05 05:16:51;;;;;;;14.18;8.20;;;;;;;;;;5054665;28;20037;-79
2022/09/05 05:19:21;;;;;;;11.35;8.73;;;;;;;;;;5055524;28;20045;-79
2022/09/05 05:21:52;;;;;;;10.88;8.35;;;;;;;;;;5054518;28;20409;-79
2022/09/05 05:24:22;;;;;;;9.85;8.82;;;;;;;;;;5055032;28;20587;-79
2022/09/05 05:26:59;;;;;;;10.95;8.70;;;;;;;;;;5054363;28;20393;-79
2022/09/05 05:29:25;;;;;;;10.75;8.77;;;;;;;;;;5054730;28;20041;-79
2022/09/05 05:31:59;;;;;;;11.57;8.77;;;;;;;;;;5054050;28;20045;-79
2022/09/05 05:34:51;;;;;;;10.07;8.30;;;;;;;;;;5054558;28;20040;-79
2022/09/05 05:37:30;;;;;;;12.13;8.18;;;;;;;;;;5036088;28;20559;-79
2022/09/05 05:40:07;;;;;;;11.98;8.07;;;;;;;;;;5055384;28;20045;-79
2022/09/05 05:42:35;;;;;;;9.40;8.05;;;;;;;;;;5054666;28;20562;-79
2022/09/05 05:45:01;;;;;;;9.57;7.82;;;;;;;;;;5053817;28;20052;-79
2022/09/05 05:47:41;;;;;;;10.02;7.95;;;;;;;;;;5054203;28;20041;-79
2022/09/05 05:50:26;;;;;;;11.10;7.95;;;;;;;;;;5053885;28;20037;-79
2022/09/05 05:52:55;;;;;;;9.88;7.90;;;;;;;;;;5054073;28;20132;-79
2022/09/05 05:55:34;;;;;;;8.73;7.30;;;;;;;;;;5054375;28;20052;-79
2022/09/05 05:58:03;;;;;;;8.30;7.32;;;;;;;;;;5053692;28;20044;-79
2022/09/05 06:00:55;;;;;;;9.65;7.45;;;;;;;;;;5039550;28;20076;-79
2022/09/05 06:03:25;;;;;;;7.80;7.00;;;;;;;;;;5053654;28;20120;-80
2022/09/05 06:06:06;;;;;;;11.10;7.35;;;;;;;;;;5053396;28;20045;-80
2022/09/05 06:08:51;;;;;;;9.73;7.05;;;;;;;;;;5053332;28;20099;-80
2022/09/05 06:11:23;;;;;;;8.63;7.10;;;;;;;;;;5052965;28;20041;-80
2022/09/05 06:14:07;;;;;;;8.02;7.03;;;;;;;;;;5052868;28;20071;-79
2022/09/05 06:16:42;;;;;;;7.22;6.40;;;;;;;;;;5036902;28;20473;-80
2022/09/05 06:19:22;;;;;;;6.90;6.13;;;;;;;;;;5052373;28;20045;-79
2022/09/05 06:21:58;;;;;;;9.07;6.30;;;;;;;;;;5052650;28;20139;-79
2022/09/05 06:24:24;;;;;;;;;;;;;;;;;;5037135;28;20060;-80
2022/09/05 06:26:58;;;;;;;8.57;6.40;;;;;;;;;;5054052;28;19920;-80
2022/09/05 06:29:41;;;;;;;10.70;6.60;;;;;;;;;;5052891;28;20090;-80
2022/09/05 06:32:16;;;;;;;8.57;6.57;;;;;;;;;;5035976;28;20071;-80
2022/09/05 06:34:52;;;;;;;9.15;6.70;;;;;;;;;;5052968;28;20045;-80
2022/09/05 06:37:30;;;;;;;7.68;6.35;;;;;;;;;;5036481;28;20086;-80
2022/09/05 06:40:02;;;;;;;10.40;6.43;;;;;;;;;;5052677;28;20111;-80
2022/09/05 06:42:55;;;;;;;8.95;6.25;;;;;;;;;;5052667;28;20033;-80
2022/09/05 06:45:41;;;;;;;7.10;6.38;;;;;;;;;;5052993;28;20124;-80
2022/09/05 06:48:16;;;;;;;8.52;6.85;;;;;;;;;;5051847;28;20041;-80
2022/09/05 06:50:55;;;;;;;10.32;6.57;;;;;;;;;;5052590;28;20041;-80
2022/09/05 06:53:41;;;;;;;9.07;6.32;;;;;;;;;;5052028;28;20061;-80
2022/09/05 06:56:17;;;;;;;10.95;6.78;;;;;;;;;;5051943;28;20041;-80
2022/09/05 06:59:02;;;;;;;8.15;6.22;;;;;;;;;;5035799;28;20087;-81
2022/09/05 07:01:30;;;;;;;8.82;5.95;;;;;;;;;;5052699;28;20049;-79
2022/09/05 07:04:08;;;;;;;10.05;6.30;;;;;;;;;;5051722;28;20041;-79
2022/09/05 07:06:53;;;;;;;8.30;5.93;;;;;;;;;;5035544;28;20044;-78
2022/09/05 07:09:33;;;;;;;7.27;6.30;;;;;;;;;;5052209;28;20053;-79
2022/09/05 07:12:26;;;;;;;8.45;6.20;;;;;;;;;;5051018;28;20294;-79
2022/09/05 07:14:55;;;;;;;7.40;6.18;;;;;;;;;;5037531;28;20478;-78
2022/09/05 07:17:40;;;;;;;18.70;6.40;;;;;;;;;;5052289;28;20040;-79
2022/09/05 07:20:14;;;;;;;20.77;6.43;;;;;;;;;;5051964;28;20482;-79
2022/09/05 07:22:43;;;;;;;13.00;6.38;;;;;;;;;;5051836;28;20075;-78
2022/09/05 07:25:13;;;;;;;7.70;6.30;;;;;;;;;;5051770;28;20120;-79
2022/09/05 07:27:56;;;;;;;10.60;6.68;;;;;;;;;;5035106;28;20045;-79
2022/09/05 07:30:22;;;;;;;7.45;6.03;;;;;;;;;;5053452;28;20043;-79
2022/09/05 07:32:50;;;;;;;9.30;6.20;;;;;;;;;;5051814;28;20048;-78
2022/09/05 07:35:20;;;;;;;7.78;6.18;;;;;;;;;;5051603;28;20453;-78
2022/09/05 07:37:48;;;;;;;12.43;6.10;;;;;;;;;;5051946;28;20045;-79
2022/09/05 07:40:16;;;;;;;8.15;7.03;;;;;;;;;;5052721;28;20111;-78
2022/09/05 07:42:53;;;;;;;9.95;5.80;;;;;;;;;;5052067;28;20513;-82
2022/09/05 07:45:29;;;;;;;10.95;6.30;;;;;;;;;;5035199;28;20037;-82
2022/09/05 07:48:02;;;;;;;9.60;6.22;;;;;;;;;;5051990;28;20055;-78
2022/09/05 07:50:29;;;;;;;9.75;6.70;;;;;;;;;;5051567;28;20033;-78
2022/09/05 07:52:57;;;;;;;10.60;6.70;;;;;;;;;;5051172;28;20060;-78
2022/09/05 07:55:29;;;;;;;10.45;6.25;;;;;;;;;;5052225;28;20064;-78
2022/09/05 07:57:58;;;;;;;8.65;6.50;;;;;;;;;;5051162;28;20040;-78
2022/09/05 08:00:25;;;;;;;10.68;6.05;;;;;;;;;;5051289;28;20113;-78
2022/09/05 08:02:51;;;;;;;12.32;6.13;;;;;;;;;;5034292;28;20041;-78
2022/09/05 08:05:19;;;;;;;11.30;6.05;;;;;;;;;;5050881;28;20048;-78
2022/09/05 08:07:49;;;;;;;8.55;5.75;;;;;;;;;;5051149;28;20037;-79
2022/09/05 08:10:19;;;;;;;13.02;5.22;;;;;;;;;;5050663;28;20041;-78
2022/09/05 08:12:53;;;;;;;8.20;5.60;;;;;;;;;;5051220;28;20422;-79
2022/09/05 08:15:23;;;;;;;7.80;5.50;;;;;;;;;;5050604;28;20049;-78
2022/09/05 08:17:55;;;;;;;11.88;5.30;;;;;;;;;;5051515;28;21555;-79
2022/09/05 08:20:30;;;;;;;8.63;5.32;;;;;;;;;;5050933;28;20107;-78
2022/09/05 08:23:09;;;;;;;7.32;4.70;;;;;;;;;;5050673;28;20072;-79
2022/09/05 08:25:38;;;;;;;10.82;5.10;;;;;;;;;;5034415;28;20143;-78
2022/09/05 08:28:22;;;;;;;9.52;5.35;;;;;;;;;;5033931;28;20109;-79
2022/09/05 08:30:53;;;;;;;9.55;5.50;;;;;;;;;;5050991;28;20048;-78
2022/09/05 08:33:24;;;;;;;11.82;5.45;;;;;;;;;;5050401;28;20069;-79
2022/09/05 08:35:53;;;;;;;14.10;4.90;;;;;;;;;;5051279;28;20499;-79
2022/09/05 08:38:20;;;;;;;13.00;4.72;;;;;;;;;;5050475;28;20134;-79
2022/09/05 08:40:49;;;;;;;5.60;3.97;;;;;;;;;;5051130;28;20051;-79
2022/09/05 08:43:29;;;;;;;10.52;4.63;;;;;;;;;;5050290;28;20048;-79
2022/09/05 08:46:14;;;;;;;8.55;4.20;;;;;;;;;;5034313;28;20040;-79
2022/09/05 08:48:58;;;;;;;8.70;4.28;;;;;;;;;;5050564;28;20044;-79
2022/09/05 08:51:43;;;;;;;6.67;4.40;;;;;;;;;;5050803;28;20048;-79
2022/09/05 08:54:32;;;;;;;5.65;4.10;;;;;;;;;;5050064;28;20060;-79
2022/09/05 08:57:12;;;;;;;9.38;4.20;;;;;;;;;;5040780;28;20462;-79
2022/09/05 08:59:38;;;;;;;6.57;3.95;;;;;;;;;;5050648;28;20041;-79
2022/09/05 09:02:13;;;;;;;7.93;3.90;;;;;;;;;;5050706;28;20080;-79
2022/09/05 09:04:45;;;;;;;5.90;3.22;;;;;;;;;;5050875;28;20553;-79
2022/09/05 09:07:21;;;;;;;8.98;3.80;;;;;;;;;;5050894;28;20053;-79
2022/09/05 09:09:54;;;;;;;8.45;3.70;;;;;;;;;;5034498;28;20494;-79
2022/09/05 09:12:23;;;;;;;9.40;3.65;;;;;;;;;;5034217;28;20486;-79
2022/09/05 09:14:49;;;;;;;6.38;3.30;;;;;;;;;;5050431;28;20029;-79
2022/09/05 09:17:15;;;;;;;7.13;3.28;;;;;;;;;;5033919;28;20106;-79
2022/09/05 09:19:46;;;;;;;6.40;2.88;;;;;;;;;;5050356;28;20040;-80
2022/09/05 09:22:32;;;;;;;6.53;2.38;;;;;;;;;;5033522;28;20098;-79
2022/09/05 09:25:02;;;;;;;5.63;2.60;;;;;;;;;;5067024;28;20037;-79
2022/09/05 09:27:34;;;;;;;5.90;2.85;;;;;;;;;;5050009;28;20048;-79
2022/09/05 09:30:03;;;;;;;5.80;2.63;;;;;;;;;;5050615;28;20032;-79
2022/09/05 09:32:30;;;;;;;5.65;2.53;;;;;;;;;;5049958;28;20075;-79
2022/09/05 09:34:59;;;;;;;6.30;2.83;;;;;;;;;;5051674;28;20037;-79
2022/09/05 09:37:25;;;;;;;4.55;2.40;;;;;;;;;;5053640;28;20041;-79
2022/09/05 09:39:51;;;;;;;8.20;2.63;;;;;;;;;;5053600;28;20069;-79
2022/09/05 09:42:30;;;;;;;4.43;2.42;;;;;;;;;;5053386;28;20091;-79
2022/09/05 09:45:15;;;;;;;5.85;2.53;;;;;;;;;;5053641;28;20509;-79
2022/09/05 09:48:00;;;;;;;5.75;2.38;;;;;;;;;;5053726;28;20045;-79
2022/09/05 09:50:45;;;;;;;4.38;2.53;;;;;;;;;;5036679;28;20033;-79
2022/09/05 09:53:13;;;;;;;;;;;;;;;;;;5053775;28;20064;-79
2022/09/05 09:55:45;;;;;;;4.45;2.38;;;;;;;;;;5036891;28;19920;-79
2022/09/05 09:58:47;;;;;;;4.55;2.20;;;;;;;;;;5053221;28;20041;-79
2022/09/05 10:01:24;;;;;;;4.78;2.40;;;;;;;;;;4999949;28;20410;-79
2022/09/05 10:04:09;;;;;;;6.78;2.40;;;;;;;;;;5032223;28;20490;-80
2022/09/05 10:06:53;;;;;;;5.60;2.55;;;;;;;;;;5053157;28;20127;-80
2022/09/05 10:09:38;;;;;;;4.97;2.58;;;;;;;;;;5052864;28;20053;-80
2022/09/05 10:12:33;;;;;;;4.68;2.40;;;;;;;;;;5053827;28;20048;-80
2022/09/05 10:14:59;;;;;;;4.20;2.58;;;;;;;;;;5053549;28;20481;-80
2022/09/05 10:17:37;;;;;;;3.20;2.30;;;;;;;;;;5053050;28;20045;-80
2022/09/05 10:20:19;;;;;;;3.60;2.33;;;;;;;;;;5040604;28;20071;-80
2022/09/05 10:22:48;;;;;;;3.10;2.20;;;;;;;;;;5036828;28;20033;-79
2022/09/05 10:25:14;;;;;;;5.47;1.92;;;;;;;;;;5053029;28;20496;-79
2022/09/05 10:27:43;;;;;;;3.45;1.90;;;;;;;;;;5036569;28;20047;-79
2022/09/05 10:30:11;;;;;;;4.07;2.47;;;;;;;;;;5039381;28;20088;-80
2022/09/05 10:32:40;;;;;;;4.32;2.38;;;;;;;;;;5052534;28;20037;-80
2022/09/05 10:35:23;;;;;;;4.15;2.00;;;;;;;;;;5053130;28;20355;-80
2022/09/05 10:38:03;;;;;;;4.85;2.20;;;;;;;;;;5053118;28;20408;-80
2022/09/05 10:40:31;;;;;;;3.20;1.95;;;;;;;;;;5052392;28;20052;-80
2022/09/05 10:43:01;;;;;;;5.05;2.35;;;;;;;;;;5053041;28;20060;-80
2022/09/05 10:45:42;;;;;;;3.42;2.50;;;;;;;;;;5035217;28;20045;-79
2022/09/05 10:48:17;;;;;;;4.95;2.10;;;;;;;;;;5052249;28;20145;-80
2022/09/05 10:50:47;;;;;;;4.03;2.47;;;;;;;;;;5052708;28;20053;-80
2022/09/05 10:53:25;;;;;;;3.20;2.08;;;;;;;;;;5052517;28;20040;-79
2022/09/05 10:55:52;;;;;;;3.30;2.08;;;;;;;;;;5052334;28;20055;-79
2022/09/05 10:58:34;;;;;;;6.82;2.38;;;;;;;;;;5052727;28;20511;-80
2022/09/05 11:01:04;;;;;;;5.35;2.20;;;;;;;;;;5052461;28;20044;-80
2022/09/05 11:04:03;;;;;;;3.83;2.00;;;;;;;;;;5051978;28;20083;-80
2022/09/05 11:06:55;;;;;;;3.15;1.80;;;;;;;;;;5048696;28;20058;-80
2022/09/05 11:09:24;;;;;;;3.60;1.85;;;;;;;;;;5027170;28;20080;-80
2022/09/05 11:12:05;;;;;;;3.72;1.50;;;;;;;;;;5035434;28;20047;-80
2022/09/05 11:14:50;;;;;;;3.90;1.58;;;;;;;;;;5034951;28;20048;-80
2022/09/05 11:17:22;;;;;;;4.55;1.80;;;;;;;;;;5052119;28;20051;-80
2022/09/05 11:19:55;;;;;;;4.22;1.70;;;;;;;;;;5052247;28;20041;-80
2022/09/05 11:22:24;;;;;;;2.77;1.80;;;;;;;;;;5051952;28;20052;-80
2022/09/05 11:24:55;;;;;;;3.38;1.80;;;;;;;;;;5052176;28;20033;-80
2022/09/05 11:27:30;;;;;;;4.20;2.08;;;;;;;;;;5034988;28;20045;-80
2022/09/05 11:30:15;;;;;;;5.97;1.90;;;;;;;;;;5051870;28;20033;-80
2022/09/05 11:32:41;;;;;;;2.80;1.90;;;;;;;;;;5051305;28;20124;-79
2022/09/05 11:35:13;;;;;;;3.20;1.73;;;;;;;;;;5051738;28;20045;-80
2022/09/05 11:37:39;;;;;;;4.53;1.80;;;;;;;;;;5051124;28;20182;-79
2022/09/05 11:40:24;;;;;;;3.72;1.92;;;;;;;;;;5051716;28;20048;-80
2022/09/05 11:42:50;;;;;;;;;;;;;;;;;;5051876;28;20037;-80
2022/09/05 11:45:28;;;;;;;4.43;1.90;;;;;;;;;;5051557;28;20401;-80
2022/09/05 11:47:54;;;;;;;6.22;2.30;;;;;;;;;;5051327;28;20044;-80
2022/09/05 11:50:26;;;;;;;4.82;2.20;;;;;;;;;;5034758;28;20032;-80
2022/09/05 11:53:01;;;;;;;3.63;2.00;;;;;;;;;;5051859;28;20448;-79
2022/09/05 11:55:28;;;;;;;4.63;2.30;;;;;;;;;;5050181;28;20509;-80
2022/09/05 11:57:54;;;;;;;6.82;2.50;;;;;;;;;;5051171;28;20048;-79
2022/09/05 12:00:40;;;;;;;5.45;2.20;;;;;;;;;;5051269;28;20045;-80
2022/09/05 12:03:25;;;;;;;5.30;2.30;;;;;;;;;;5050920;28;20149;-80
2022/09/05 12:05:58;;;;;;;4.22;2.30;;;;;;;;;;5034827;28;20056;-79
2022/09/05 12:08:44;;;;;;;5.55;2.17;;;;;;;;;;5052692;28;20048;-79
2022/09/05 12:11:29;;;;;;;5.80;2.13;;;;;;;;;;5031459;28;20052;-79
2022/09/05 12:14:14;;;;;;;6.38;1.92;;;;;;;;;;5051254;28;20083;-80
2022/09/05 12:16:43;;;;;;;7.32;2.40;;;;;;;;;;5050911;28;20128;-80
2022/09/05 12:19:18;;;;;;;4.28;2.13;;;;;;;;;;5034526;28;20068;-80
2022/09/05 12:22:04;;;;;;;3.45;2.10;;;;;;;;;;5050961;28;20067;-80
2022/09/05 12:25:03;;;;;;;5.10;2.05;;;;;;;;;;5050492;28;20048;-80
2022/09/05 12:27:31;;;;;;;5.85;2.10;;;;;;;;;;5022557;28;20049;-80
2022/09/05 12:30:04;;;;;;;3.40;2.00;;;;;;;;;;5050869;28;20120;-79
2022/09/05 12:32:32;;;;;;;4.32;1.85;;;;;;;;;;5050645;28;20044;-80
2022/09/05 12:34:59;;;;;;;2.97;1.60;;;;;;;;;;5050739;28;20038;-80
2022/09/05 12:37:30;;;;;;;4.25;2.17;;;;;;;;;;5050707;28;20041;-79
2022/09/05 12:40:08;;;;;;;4.20;1.92;;;;;;;;;;5050669;28;20040;-80
2022/09/05 12:42:53;;;;;;;2.95;1.60;;;;;;;;;;5033649;28;20044;-80
2022/09/05 12:45:37;;;;;;;3.80;1.88;;;;;;;;;;5050684;28;20041;-80
2022/09/05 12:48:12;;;;;;;3.15;2.00;;;;;;;;;;5050796;28;20509;-80
2022/09/05 12:50:54;;;;;;;3.10;1.77;;;;;;;;;;5050480;28;20048;-80
2022/09/05 12:53:21;;;;;;;4.05;2.17;;;;;;;;;;5050362;28;20073;-79
2022/09/05 12:55:51;;;;;;;3.30;1.60;;;;;;;;;;5050510;28;20428;-81
2022/09/05 12:58:27;;;;;;;3.70;1.60;;;;;;;;;;5050505;28;20106;-80
2022/09/05 13:01:08;;;;;;;2.85;1.75;;;;;;;;;;5050229;28;20045;-80
2022/09/05 13:03:36;;;;;;;4.55;1.90;;;;;;;;;;5050229;28;20052;-80
2022/09/05 13:06:19;;;;;;;4.85;1.90;;;;;;;;;;5050459;28;20080;-80
2022/09/05 13:08:46;;;;;;;5.07;1.70;;;;;;;;;;5050290;28;20493;-80
2022/09/05 13:11:13;;;;;;;3.70;1.92;;;;;;;;;;5053954;28;20060;-80
2022/09/05 13:13:47;;;;;;;3.28;1.90;;;;;;;;;;5055188;28;20095;-80
2022/09/05 13:16:18;;;;;;;2.72;1.60;;;;;;;;;;5054366;28;20098;-80
2022/09/05 13:18:45;;;;;;;3.47;1.80;;;;;;;;;;5054134;28;20038;-80
2022/09/05 13:21:30;;;;;;;3.90;1.95;;;;;;;;;;5054223;28;20095;-80
2022/09/05 13:24:04;;;;;;;4.68;1.83;;;;;;;;;;5054115;28;20137;-80
2022/09/05 13:26:38;;;;;;;3.00;1.88;;;;;;;;;;5054064;28;20048;-80
2022/09/05 13:29:23;;;;;;;4.80;1.73;;;;;;;;;;5053976;28;20526;-80
2022/09/05 13:31:53;;;;;;;3.90;1.85;;;;;;;;;;5053830;28;20064;-80
2022/09/05 13:34:22;;;;;;;3.67;1.70;;;;;;;;;;5054215;28;20087;-80
2022/09/05 13:36:50;;;;;;;2.85;1.80;;;;;;;;;;5053468;28;20037;-79
2022/09/05 13:39:18;;;;;;;3.85;1.90;;;;;;;;;;5054181;28;20090;-79
2022/09/05 13:41:47;;;;;;;2.83;1.70;;;;;;;;;;5053421;28;20051;-79
2022/09/05 13:44:20;;;;;;;2.65;1.77;;;;;;;;;;5053575;28;20091;-79
2022/09/05 13:46:53;;;;;;;3.63;1.75;;;;;;;;;;5053336;28;20037;-79
2022/09/05 13:49:22;;;;;;;4.35;1.73;;;;;;;;;;5053756;28;20051;-79
2022/09/05 13:52:04;;;;;;;2.88;1.80;;;;;;;;;;5036756;28;20033;-79
2022/09/05 13:54:37;;;;;;;4.13;1.77;;;;;;;;;;5053393;28;20057;-79
2022/09/05 13:57:22;;;;;;;2.75;1.70;;;;;;;;;;5036979;28;20428;-79
2022/09/05 14:00:17;;;;;;;2.92;1.80;;;;;;;;;;5053432;28;20120;-79
2022/09/05 14:03:07;;;;;;;5.70;1.80;;;;;;;;;;5052792;28;20049;-80
2022/09/05 14:05:51;;;;;;;3.75;2.08;;;;;;;;;;5037022;28;20037;-80
2022/09/05 14:08:17;;;;;;;3.65;2.35;;;;;;;;;;5053414;28;20052;-80
2022/09/05 14:10:44;;;;;;;3.47;1.90;;;;;;;;;;5036644;28;20040;-80
2022/09/05 14:13:24;;;;;;;2.88;1.60;;;;;;;;;;5053256;28;20033;-80
2022/09/05 14:15:57;;;;;;;3.60;1.70;;;;;;;;;;5052753;28;20041;-80
2022/09/05 14:18:24;;;;;;;2.70;1.50;;;;;;;;;;5036621;28;20049;-80
2022/09/05 14:21:17;;;;;;;5.13;1.98;;;;;;;;;;5036214;28;20076;-79
2022/09/05 14:23:52;;;;;;;4.10;2.00;;;;;;;;;;5053058;28;20409;-79
2022/09/05 14:26:21;;;;;;;2.05;1.60;;;;;;;;;;5052967;28;20048;-80
2022/09/05 14:28:57;;;;;;;3.60;1.70;;;;;;;;;;5036055;28;20494;-80
2022/09/05 14:31:28;;;;;;;5.35;1.63;;;;;;;;;;5052777;28;20044;-80
2022/09/05 14:34:09;;;;;;;3.63;1.70;;;;;;;;;;5036066;28;20068;-80
2022/09/05 14:36:44;;;;;;;4.63;1.60;;;;;;;;;;5036229;28;20036;-80
2022/09/05 14:39:14;;;;;;;6.00;1.80;;;;;;;;;;5053286;28;20052;-80
2022/09/05 14:41:58;;;;;;;3.75;1.83;;;;;;;;;;5052750;28;20048;-80
2022/09/05 14:44:48;;;;;;;4.60;1.70;;;;;;;;;;5036211;28;20048;-80
2022/09/05 14:47:34;;;;;;;3.47;1.60;;;;;;;;;;5054099;28;20067;-80
2022/09/05 14:50:04;;;;;;;5.00;1.50;;;;;;;;;;5052496;28;20410;-80
2022/09/05 14:52:32;;;;;;;2.60;1.30;;;;;;;;;;5053067;28;20265;-80
2022/09/05 14:54:59;;;;;;;2.40;1.50;;;;;;;;;;5052052;28;20057;-79
2022/09/05 14:57:30;;;;;;;4.75;1.48;;;;;;;;;;5052520;28;20060;-79
2022/09/05 14:59:57;;;;;;;2.58;1.50;;;;;;;;;;5035832;28;20056;-79
2022/09/05 15:02:27;;;;;;;4.43;1.83;;;;;;;;;;5052650;28;20044;-79
2022/09/05 15:05:01;;;;;;;3.08;1.70;;;;;;;;;;5053391;28;20079;-79
2022/09/05 15:07:29;;;;;;;2.63;1.77;;;;;;;;;;5036043;28;20509;-79
2022/09/05 15:10:11;;;;;;;2.72;1.75;;;;;;;;;;5052263;28;20127;-79
2022/09/05 15:12:45;;;;;;;4.03;1.67;;;;;;;;;;5052478;28;20550;-79
2022/09/05 15:15:28;;;;;;;2.95;1.88;;;;;;;;;;5051809;28;20048;-79
2022/09/05 15:18:13;;;;;;;3.90;1.95;;;;;;;;;;5053003;28;20171;-79
2022/09/05 15:20:43;;;;;;;2.40;1.50;;;;;;;;;;5052579;28;20573;-79
2022/09/05 15:23:13;;;;;;;3.40;1.90;;;;;;;;;;5051796;28;20044;-79
2022/09/05 15:25:44;;;;;;;4.28;1.90;;;;;;;;;;5052044;28;20060;-79
2022/09/05 15:28:17;;;;;;;5.28;2.13;;;;;;;;;;5051746;28;20606;-79
2022/09/05 15:30:54;;;;;;;10.18;2.15;;;;;;;;;;5051901;28;20059;-79